Weather at RBC Airport

Public forecast

Using degrees Fahrenheit for public forecast. Weather courtesy of forecast.io.

Closest aviation weather report (METAR) to RBC Airport

Closest report is Jonesboro Municipal Airport, 7.9 nm (14.6 km) ENE. Retrieved 2022/01/29 11:53 UTC (54 minutes ago):

KJBR 291153Z AUTO 00000KT 10SM CLR M08/M13 A3039 RMK AO2 SLP292 T10781128 11044 21083 55009

Closest aviation forecast (TAF) to RBC Airport

Closest forecast is Jonesboro Municipal Airport, 7.9 nm (14.6 km) ENE. Retrieved 2022/01/29 12:24 UTC (23 minutes ago):

TAF KJBR 291122Z 2912/3012 VRB04KT P6SM SKC FM291600 21012KT P6SM SKC FM300000 18008KT P6SM SKC FM301000 25006KT P6SM SKC